Time;durP1;ratioP1;P1;durP2;ratioP2;P2;SDS_P1;SDS_P2;PMS_P1;PMS_P2;Temp;Humidity;BMP_temperature;BMP_pressure;BME280_temperature;BME280_humidity;BME280_pressure;Samples;Min_cycle;Max_cycle;Signal;HPM_P1;HPM_P2
2022/11/01 00:00:41;;;;;;;16.38;7.90;;;14.80;99.90;;;;;;5051862;28;20225;-78
2022/11/01 00:03:08;;;;;;;12.37;7.67;;;14.80;99.90;;;;;;5051995;28;20206;-77
2022/11/01 00:05:35;;;;;;;22.67;8.95;;;14.80;99.90;;;;;;5051772;28;20201;-79
2022/11/01 00:08:01;;;;;;;15.93;8.80;;;14.80;99.90;;;;;;5051413;28;20288;-78
2022/11/01 00:10:28;;;;;;;13.23;8.50;;;14.80;99.90;;;;;;5051991;28;20204;-77
2022/11/01 00:12:56;;;;;;;14.80;8.40;;;14.80;99.90;;;;;;5071855;28;20224;-79
2022/11/01 00:15:23;;;;;;;18.63;9.30;;;14.90;99.90;;;;;;5070974;28;20508;-78
2022/11/01 00:17:50;;;;;;;13.30;8.25;;;14.80;99.90;;;;;;5061251;28;20288;-78
2022/11/01 00:20:17;;;;;;;13.27;8.50;;;14.90;99.90;;;;;;5054596;28;20252;-79
2022/11/01 00:22:44;;;;;;;15.87;8.80;;;14.90;99.90;;;;;;5055264;28;20198;-79
2022/11/01 00:25:11;;;;;;;14.68;8.52;;;14.90;99.90;;;;;;5055650;28;20492;-80
2022/11/01 00:27:37;;;;;;;12.43;8.30;;;14.90;99.90;;;;;;5064621;28;20357;-80
2022/11/01 00:30:06;;;;;;;18.08;8.80;;;15.00;99.90;;;;;;5066039;28;20208;-80
2022/11/01 00:32:33;;;;;;;15.07;8.73;;;14.90;99.90;;;;;;5055475;28;20229;-81
2022/11/01 00:35:00;;;;;;;16.40;8.95;;;15.00;99.90;;;;;;5055229;28;20202;-79
2022/11/01 00:37:28;;;;;;;18.27;8.70;;;15.00;99.90;;;;;;5054914;28;20232;-79
2022/11/01 00:39:55;;;;;;;15.23;8.70;;;15.00;99.90;;;;;;5055282;28;20236;-79
2022/11/01 00:42:22;;;;;;;10.87;8.30;;;15.00;99.90;;;;;;5055306;28;20208;-78
2022/11/01 00:44:48;;;;;;;14.85;8.77;;;15.00;99.90;;;;;;5054049;28;20257;-79
2022/11/01 00:47:17;;;;;;;14.63;8.97;;;15.00;99.90;;;;;;5062548;28;20203;-80
2022/11/01 00:49:44;;;;;;;16.10;8.63;;;15.00;99.90;;;;;;5074891;28;20605;-78
2022/11/01 00:52:11;;;;;;;11.07;8.00;;;15.00;99.90;;;;;;5073529;28;20204;-77
2022/11/01 00:54:37;;;;;;;17.00;9.00;;;15.00;99.90;;;;;;5073958;28;20237;-80
2022/11/01 00:57:04;;;;;;;12.43;7.83;;;15.00;99.90;;;;;;5074672;28;20201;-78
2022/11/01 00:59:31;;;;;;;11.50;7.57;;;15.00;99.90;;;;;;5074304;28;20207;-79
2022/11/01 01:01:58;;;;;;;13.50;8.23;;;15.00;99.90;;;;;;5064850;28;20202;-79
2022/11/01 01:04:26;;;;;;;13.83;8.43;;;15.00;99.90;;;;;;5054323;28;20191;-79
2022/11/01 01:06:53;;;;;;;15.57;8.60;;;15.00;99.90;;;;;;5054561;28;20628;-79
2022/11/01 01:09:20;;;;;;;17.58;8.55;;;15.00;99.90;;;;;;5054703;28;20612;-78
2022/11/01 01:11:47;;;;;;;13.57;8.15;;;15.00;99.90;;;;;;5054085;28;20613;-79
2022/11/01 01:14:14;;;;;;;14.23;8.00;;;15.00;99.90;;;;;;5054374;28;20220;-78
2022/11/01 01:16:41;;;;;;;17.87;8.87;;;15.00;99.90;;;;;;5054431;28;20536;-79
2022/11/01 01:19:07;;;;;;;19.17;9.50;;;15.00;99.90;;;;;;5054072;28;20202;-79
2022/11/01 01:21:36;;;;;;;16.35;8.57;;;15.10;99.90;;;;;;5054894;28;20301;-79
2022/11/01 01:24:03;;;;;;;14.73;8.60;;;15.10;99.90;;;;;;5054195;28;20610;-79
2022/11/01 01:26:30;;;;;;;16.80;8.97;;;15.10;99.90;;;;;;5054059;28;20209;-80
2022/11/01 01:28:57;;;;;;;17.37;8.80;;;15.00;99.90;;;;;;5054387;28;20517;-79
2022/11/01 01:31:23;;;;;;;12.73;8.20;;;15.00;99.90;;;;;;5053905;28;20297;-78
2022/11/01 01:33:50;;;;;;;16.53;8.50;;;15.00;99.90;;;;;;5053837;28;20233;-79
2022/11/01 01:36:18;;;;;;;12.53;8.20;;;15.00;99.90;;;;;;5054503;28;20208;-79
2022/11/01 01:38:46;;;;;;;17.37;8.63;;;15.00;99.90;;;;;;5054569;28;20212;-79
2022/11/01 01:43:58;;;;;;;17.30;9.03;;;15.00;99.90;;;;;;5070751;28;20248;-80
2022/11/01 01:46:25;;;;;;;15.97;8.57;;;15.00;99.90;;;;;;5073987;28;20197;-77
2022/11/01 01:48:56;;;;;;;13.15;7.72;;;15.00;99.90;;;;;;5074122;28;20205;-79
2022/11/01 01:51:25;;;;;;;17.27;8.90;;;15.10;99.90;;;;;;5056879;28;20289;-79
2022/11/01 01:53:57;;;;;;;17.13;8.50;;;15.10;99.90;;;;;;5053113;28;20226;-79
2022/11/01 01:56:29;;;;;;;13.77;8.70;;;15.10;99.90;;;;;;5054407;28;20190;-79
2022/11/01 01:59:00;;;;;;;11.13;8.23;;;15.10;99.90;;;;;;5053865;28;20217;-79
2022/11/01 02:01:28;;;;;;;11.67;7.47;;;15.10;99.90;;;;;;5053408;28;20194;-80
2022/11/01 02:03:54;;;;;;;17.93;8.23;;;15.10;99.90;;;;;;5054046;28;20229;-79
2022/11/01 02:06:23;;;;;;;14.45;8.25;;;15.10;99.90;;;;;;5054030;28;20198;-80
2022/11/01 02:08:56;;;;;;;9.15;8.02;;;15.20;99.90;;;;;;5053457;28;20204;-81
2022/11/01 02:11:23;;;;;;;14.52;9.15;;;15.20;99.90;;;;;;5053846;28;20212;-81
2022/11/01 02:13:50;;;;;;;15.30;8.30;;;15.20;99.90;;;;;;5053673;28;20638;-79
2022/11/01 02:16:29;;;;;;;16.63;8.35;;;15.20;99.90;;;;;;5056710;28;20493;-78
2022/11/01 02:19:11;;;;;;;12.60;8.13;;;15.30;99.90;;;;;;5074230;28;20189;-80
2022/11/01 02:21:53;;;;;;;13.13;7.77;;;15.30;99.90;;;;;;5062594;28;20655;-79
2022/11/01 02:25:00;;;;;;;14.57;8.02;;;15.30;99.90;;;;;;5053503;28;20204;-79
2022/11/01 02:27:34;;;;;;;14.93;7.80;;;15.30;99.90;;;;;;5053004;28;20200;-82
2022/11/01 02:30:14;;;;;;;13.13;7.68;;;15.30;99.90;;;;;;5052470;28;20200;-81
2022/11/01 02:32:52;;;;;;;9.48;7.15;;;15.40;99.90;;;;;;5053388;28;20208;-80
2022/11/01 02:35:30;;;;;;;12.70;7.45;;;15.40;99.90;;;;;;5053257;28;20233;-81
2022/11/01 02:38:02;;;;;;;11.07;7.40;;;15.40;99.90;;;;;;5052254;28;20224;-81
2022/11/01 02:40:35;;;;;;;8.30;7.20;;;15.40;99.90;;;;;;5052358;28;20267;-80
2022/11/01 02:43:08;;;;;;;13.18;7.93;;;15.40;99.90;;;;;;5051608;28;20249;-81
2022/11/01 02:45:39;;;;;;;15.52;7.68;;;15.40;99.90;;;;;;5053034;28;20202;-83
2022/11/01 02:48:08;;;;;;;12.10;8.17;;;15.40;99.90;;;;;;5052981;28;20208;-80
2022/11/01 02:50:38;;;;;;;14.70;8.95;;;15.40;99.90;;;;;;5052412;28;20202;-79
2022/11/01 02:53:06;;;;;;;13.18;8.00;;;15.50;99.90;;;;;;5052551;28;20533;-79
2022/11/01 02:55:34;;;;;;;13.80;7.82;;;15.50;99.90;;;;;;5052613;28;20218;-80
2022/11/01 02:58:04;;;;;;;12.83;7.50;;;15.50;99.90;;;;;;5052338;28;20285;-77
2022/11/01 03:00:35;;;;;;;11.40;7.35;;;15.40;99.90;;;;;;5052830;28;20205;-79
2022/11/01 03:03:11;;;;;;;10.88;7.30;;;15.50;99.90;;;;;;5052363;28;20598;-80
2022/11/01 03:05:48;;;;;;;11.95;7.38;;;15.50;99.90;;;;;;5051530;28;20201;-79
2022/11/01 03:08:17;;;;;;;10.00;7.47;;;15.40;99.90;;;;;;5052274;28;20594;-81
2022/11/01 03:10:51;;;;;;;14.35;7.68;;;15.40;99.90;;;;;;5052984;28;20194;-79
2022/11/01 03:13:31;;;;;;;12.02;6.82;;;15.40;99.90;;;;;;5051634;28;20205;-79
2022/11/01 03:16:07;;;;;;;8.45;5.43;;;15.40;99.90;;;;;;5052333;28;20225;-80
2022/11/01 03:18:36;;;;;;;8.30;4.95;;;15.40;99.90;;;;;;5051932;28;20496;-79
2022/11/01 03:21:14;;;;;;;10.20;3.88;;;15.40;99.90;;;;;;5060679;28;20209;-78
2022/11/01 03:23:46;;;;;;;9.80;3.83;;;15.40;99.90;;;;;;5052650;28;20194;-78
2022/11/01 03:26:17;;;;;;;9.52;3.90;;;15.30;99.90;;;;;;5057695;28;20374;-78
2022/11/01 03:28:49;;;;;;;10.07;4.00;;;15.30;99.90;;;;;;5072183;28;20203;-78
2022/11/01 03:31:18;;;;;;;8.13;3.28;;;15.30;99.90;;;;;;5072353;28;20185;-78
2022/11/01 03:33:50;;;;;;;5.53;2.53;;;15.20;99.90;;;;;;5056707;28;20603;-77
2022/11/01 03:36:19;;;;;;;4.03;2.33;;;15.20;99.90;;;;;;5052434;28;20764;-79
2022/11/01 03:38:56;;;;;;;4.88;1.88;;;15.20;99.90;;;;;;5052286;28;20642;-78
2022/11/01 03:41:25;;;;;;;9.80;2.10;;;15.10;99.90;;;;;;5052009;28;20190;-80
2022/11/01 03:43:53;;;;;;;5.13;1.83;;;15.10;99.90;;;;;;5051890;28;20264;-77
2022/11/01 03:46:20;;;;;;;8.15;1.98;;;15.10;99.90;;;;;;5051903;28;20210;-83
2022/11/01 03:48:49;;;;;;;8.70;2.33;;;15.10;99.90;;;;;;5052566;28;20209;-80
2022/11/01 03:51:15;;;;;;;12.88;2.58;;;15.00;99.90;;;;;;5052352;28;20372;-78
2022/11/01 03:53:42;;;;;;;14.53;2.67;;;14.90;99.90;;;;;;5051186;28;20218;-76
2022/11/01 03:56:09;;;;;;;17.63;3.50;;;14.90;99.90;;;;;;5052476;28;20208;-79
2022/11/01 03:58:45;;;;;;;13.80;3.00;;;14.80;99.90;;;;;;5052136;28;20194;-77
2022/11/01 04:01:14;;;;;;;24.85;4.30;;;14.80;99.90;;;;;;5052090;28;20248;-80
2022/11/01 04:03:41;;;;;;;15.35;3.67;;;14.70;99.90;;;;;;5051872;28;20216;-79
2022/11/01 04:06:10;;;;;;;12.30;3.57;;;14.70;99.90;;;;;;5066980;28;20205;-80
2022/11/01 04:08:37;;;;;;;14.63;3.83;;;14.60;99.90;;;;;;5071432;28;20278;-78
2022/11/01 04:11:05;;;;;;;22.33;3.83;;;14.60;99.90;;;;;;5071892;28;20625;-80
2022/11/01 04:13:32;;;;;;;14.90;3.53;;;14.50;99.90;;;;;;5053207;28;20210;-79
2022/11/01 04:21:31;;;;;;;12.30;2.30;;;14.50;99.90;;;;;;5051298;28;20189;-79
2022/11/01 04:23:58;;;;;;;12.10;2.43;;;14.50;99.90;;;;;;5051845;28;20198;-80
2022/11/01 04:26:25;;;;;;;12.33;2.60;;;14.50;99.90;;;;;;5066654;28;20808;-78
2022/11/01 04:29:00;;;;;;;11.97;2.53;;;14.50;99.90;;;;;;5070043;28;20199;-79
2022/11/01 04:31:29;;;;;;;11.70;2.10;;;14.50;99.90;;;;;;5051876;28;20645;-77
2022/11/01 04:33:56;;;;;;;5.35;1.70;;;14.50;99.90;;;;;;5051672;28;20224;-78
2022/11/01 04:36:24;;;;;;;8.07;2.30;;;14.50;99.90;;;;;;5051546;28;20202;-78
2022/11/01 04:38:54;;;;;;;11.27;2.83;;;14.50;99.90;;;;;;5051627;28;20208;-77
2022/11/01 04:41:22;;;;;;;7.40;1.97;;;14.50;99.90;;;;;;5051963;28;20206;-77
2022/11/01 04:43:49;;;;;;;11.43;2.37;;;14.60;99.90;;;;;;5050725;28;20593;-76
2022/11/01 04:46:16;;;;;;;8.73;2.50;;;14.60;99.90;;;;;;5051302;28;20209;-78
2022/11/01 04:48:43;;;;;;;9.73;2.53;;;14.50;99.90;;;;;;5051785;28;20202;-76
2022/11/01 04:51:11;;;;;;;12.53;2.40;;;14.50;99.90;;;;;;5050665;28;20515;-80
2022/11/01 04:53:38;;;;;;;15.57;3.20;;;14.50;99.90;;;;;;5051075;28;20316;-78
2022/11/01 04:56:08;;;;;;;12.63;2.50;;;14.40;99.90;;;;;;5051351;28;20622;-81
2022/11/01 04:58:35;;;;;;;12.07;2.60;;;14.40;99.90;;;;;;5050600;28;20297;-78
2022/11/01 05:01:05;;;;;;;11.07;2.63;;;14.30;99.90;;;;;;5051511;28;20601;-79
2022/11/01 05:03:32;;;;;;;11.35;2.45;;;14.30;99.90;;;;;;5051410;28;20197;-77
2022/11/01 05:05:59;;;;;;;9.43;2.40;;;14.30;99.90;;;;;;5053674;28;20517;-78
2022/11/01 05:08:26;;;;;;;8.50;2.00;;;14.30;99.90;;;;;;5055345;28;20804;-79
2022/11/01 05:10:55;;;;;;;11.87;3.07;;;14.30;99.90;;;;;;5054684;28;20202;-77
2022/11/01 05:13:24;;;;;;;15.67;3.50;;;14.30;99.90;;;;;;5037812;28;20198;-79
2022/11/01 05:15:51;;;;;;;16.07;3.37;;;14.20;99.90;;;;;;5055049;28;20325;-78
2022/11/01 05:18:17;;;;;;;14.20;3.27;;;14.20;99.90;;;;;;5054532;28;20190;-77
2022/11/01 05:20:44;;;;;;;13.53;2.77;;;14.20;99.90;;;;;;5054782;28;20198;-77
2022/11/01 05:23:11;;;;;;;16.67;3.20;;;14.20;99.90;;;;;;5054641;28;20241;-77
2022/11/01 05:25:38;;;;;;;12.73;2.80;;;14.20;99.90;;;;;;5053962;28;20483;-78
2022/11/01 05:28:06;;;;;;;12.00;2.50;;;14.20;99.90;;;;;;5054705;28;20281;-78
2022/11/01 05:30:35;;;;;;;10.90;2.60;;;14.20;99.90;;;;;;5054349;28;20259;-78
2022/11/01 05:33:04;;;;;;;14.57;2.93;;;14.10;99.90;;;;;;5053634;28;20208;-78
2022/11/01 05:35:32;;;;;;;11.97;2.90;;;14.10;99.90;;;;;;5054522;28;20225;-77
2022/11/01 05:38:00;;;;;;;13.40;3.60;;;14.10;99.90;;;;;;5053785;28;20209;-77
2022/11/01 05:40:27;;;;;;;13.23;2.97;;;14.10;99.90;;;;;;5053757;28;20201;-79
2022/11/01 05:42:54;;;;;;;13.07;2.40;;;14.10;99.90;;;;;;5054193;28;20231;-80
2022/11/01 05:45:21;;;;;;;13.00;2.67;;;14.00;99.90;;;;;;5054420;28;20194;-80
2022/11/01 05:47:49;;;;;;;12.10;3.07;;;14.10;99.90;;;;;;5053302;28;20823;-77
2022/11/01 05:50:17;;;;;;;14.07;2.37;;;14.10;99.90;;;;;;5053977;28;20205;-77
2022/11/01 05:52:44;;;;;;;14.50;3.47;;;14.10;99.90;;;;;;5053317;28;20541;-77
2022/11/01 05:55:11;;;;;;;14.37;2.83;;;14.00;99.90;;;;;;5054329;28;20530;-77
2022/11/01 05:57:38;;;;;;;9.37;2.73;;;14.00;99.90;;;;;;5054076;28;20212;-79
2022/11/01 06:00:06;;;;;;;10.70;2.07;;;14.00;99.90;;;;;;5053469;28;20202;-78
2022/11/01 06:02:33;;;;;;;11.63;2.30;;;14.10;99.90;;;;;;5054047;28;20283;-76
2022/11/01 06:05:02;;;;;;;15.37;2.87;;;14.10;99.90;;;;;;5054334;28;20304;-79
2022/11/01 06:07:28;;;;;;;13.27;2.50;;;14.10;99.90;;;;;;5053504;28;20206;-79
2022/11/01 06:09:55;;;;;;;13.03;2.43;;;14.00;99.90;;;;;;5053352;28;20697;-77
2022/11/01 06:12:24;;;;;;;8.53;2.03;;;14.00;99.90;;;;;;5053470;28;20216;-77
2022/11/01 06:14:51;;;;;;;12.00;2.70;;;14.00;99.90;;;;;;5052850;28;20214;-77
2022/11/01 06:17:18;;;;;;;11.00;2.40;;;14.00;99.90;;;;;;5053100;28;20198;-79
2022/11/01 06:19:45;;;;;;;9.53;2.60;;;14.00;99.90;;;;;;5053495;28;20209;-76
2022/11/01 06:22:14;;;;;;;12.47;2.40;;;14.00;99.90;;;;;;5052870;28;20202;-78
2022/11/01 06:24:40;;;;;;;10.97;2.63;;;14.00;99.90;;;;;;5069020;28;20552;-77
2022/11/01 06:27:08;;;;;;;14.03;2.77;;;14.00;99.90;;;;;;5073786;28;20247;-77
2022/11/01 06:29:35;;;;;;;12.43;2.50;;;13.90;99.90;;;;;;5073089;28;20216;-77
2022/11/01 06:32:04;;;;;;;17.50;3.27;;;13.90;99.90;;;;;;5073132;28;20605;-77
2022/11/01 06:34:31;;;;;;;14.43;2.97;;;13.90;99.90;;;;;;5057043;28;20212;-77
2022/11/01 06:36:58;;;;;;;12.27;2.73;;;13.90;99.90;;;;;;5052513;28;20198;-77
2022/11/01 06:39:27;;;;;;;14.90;3.57;;;13.90;99.90;;;;;;5053466;28;20743;-79
2022/11/01 06:41:54;;;;;;;20.20;3.53;;;13.90;99.90;;;;;;5052244;28;20210;-76
2022/11/01 06:44:22;;;;;;;20.07;3.43;;;13.90;99.90;;;;;;5052848;28;20303;-77
2022/11/01 06:46:48;;;;;;;13.47;3.10;;;13.90;99.90;;;;;;5053139;28;20201;-80
2022/11/01 06:49:15;;;;;;;17.80;3.57;;;13.90;99.90;;;;;;5052790;28;20198;-78
2022/11/01 06:51:42;;;;;;;16.43;3.60;;;14.00;99.90;;;;;;5078904;28;20204;-75
2022/11/01 06:54:09;;;;;;;18.17;3.53;;;14.00;99.90;;;;;;5093022;28;20224;-77
2022/11/01 06:56:38;;;;;;;23.53;4.00;;;14.00;99.90;;;;;;5075554;28;20711;-78
2022/11/01 06:59:05;;;;;;;11.40;3.93;;;14.00;99.90;;;;;;5052790;28;20300;-77
2022/11/01 07:01:32;;;;;;;18.60;3.70;;;14.00;99.90;;;;;;5052527;28;20236;-76
2022/11/01 07:04:00;;;;;;;16.53;3.33;;;14.00;99.90;;;;;;5052289;28;20200;-78
2022/11/01 07:06:29;;;;;;;19.83;4.33;;;14.00;99.90;;;;;;5052478;28;20541;-80
2022/11/01 07:08:56;;;;;;;14.57;3.90;;;14.00;99.90;;;;;;5052645;28;20205;-79
2022/11/01 07:11:23;;;;;;;19.83;4.20;;;14.00;99.90;;;;;;5051774;28;20204;-78
2022/11/01 07:13:51;;;;;;;15.83;3.47;;;14.00;99.90;;;;;;5053076;28;20285;-77
2022/11/01 07:16:18;;;;;;;20.37;3.97;;;14.10;99.90;;;;;;5052811;28;20233;-77
2022/11/01 07:18:46;;;;;;;20.33;4.20;;;14.20;99.90;;;;;;5051285;28;20255;-78
2022/11/01 07:21:13;;;;;;;29.37;5.47;;;14.20;99.90;;;;;;5052750;28;20293;-77
2022/11/01 07:23:40;;;;;;;22.87;4.73;;;14.20;99.90;;;;;;5051994;28;20194;-78
2022/11/01 07:26:07;;;;;;;14.37;3.60;;;14.20;99.90;;;;;;5051832;28;20202;-80
2022/11/01 07:28:34;;;;;;;17.30;4.43;;;14.20;99.90;;;;;;5051744;28;20202;-78
2022/11/01 07:31:02;;;;;;;18.33;4.07;;;14.20;99.90;;;;;;5052296;28;20198;-78
2022/11/01 07:33:29;;;;;;;15.30;4.17;;;14.20;99.90;;;;;;5052187;28;20251;-78
2022/11/01 07:35:56;;;;;;;14.97;3.80;;;14.20;99.90;;;;;;5051763;28;20692;-81
2022/11/01 07:38:23;;;;;;;24.47;5.63;;;14.30;99.90;;;;;;5051988;28;20208;-80
2022/11/01 07:40:51;;;;;;;20.90;4.50;;;14.30;99.90;;;;;;5052233;28;20200;-80
2022/11/01 07:43:18;;;;;;;34.27;6.60;;;14.30;99.90;;;;;;5051691;28;20879;-79
2022/11/01 07:45:45;;;;;;;22.97;5.67;;;14.30;99.90;;;;;;5051068;28;20198;-79
2022/11/01 07:48:16;;;;;;;26.90;5.93;;;14.30;99.90;;;;;;5052491;28;20206;-78
2022/11/01 07:50:44;;;;;;;23.47;5.67;;;14.30;99.90;;;;;;5064074;28;20319;-78
2022/11/01 07:53:13;;;;;;;23.53;5.70;;;14.30;99.90;;;;;;5051487;28;20213;-81
2022/11/01 07:55:40;;;;;;;29.47;5.20;;;14.30;99.90;;;;;;5052690;28;20221;-79
2022/11/01 07:58:08;;;;;;;30.10;5.57;;;14.30;99.90;;;;;;5052605;28;20502;-82
2022/11/01 08:00:35;;;;;;;33.20;6.23;;;14.30;99.90;;;;;;5060221;28;20220;-81
2022/11/01 08:03:03;;;;;;;28.23;5.93;;;14.40;99.90;;;;;;5072033;28;20280;-80
2022/11/01 08:05:32;;;;;;;18.07;4.97;;;14.40;99.90;;;;;;5062540;28;20194;-80
2022/11/01 08:07:59;;;;;;;24.53;5.10;;;14.40;99.90;;;;;;5071441;28;20258;-80
2022/11/01 08:10:27;;;;;;;27.20;6.03;;;14.50;99.90;;;;;;5071528;28;20266;-78
2022/11/01 08:13:01;;;;;;;26.80;5.73;;;14.50;99.90;;;;;;5071170;28;20260;-79
2022/11/01 08:15:28;;;;;;;24.83;5.03;;;14.50;99.90;;;;;;5065275;28;20205;-79
2022/11/01 08:17:55;;;;;;;21.53;5.40;;;14.60;99.90;;;;;;5070772;28;20586;-80
2022/11/01 08:20:22;;;;;;;17.57;5.10;;;14.60;99.90;;;;;;5069602;28;20295;-79
2022/11/01 08:22:51;;;;;;;22.70;5.30;;;14.60;99.90;;;;;;5051997;28;20289;-78
2022/11/01 08:25:18;;;;;;;32.27;5.83;;;14.60;99.90;;;;;;5070694;28;20275;-79
2022/11/01 08:27:45;;;;;;;30.20;5.87;;;14.60;99.90;;;;;;5071437;28;20661;-78
2022/11/01 08:30:13;;;;;;;23.97;5.10;;;14.60;99.90;;;;;;5071127;28;20205;-82
2022/11/01 08:32:40;;;;;;;26.70;4.67;;;14.70;99.90;;;;;;5068599;28;20585;-78
2022/11/01 08:35:08;;;;;;;24.47;5.00;;;14.70;99.90;;;;;;5071318;28;20279;-79
2022/11/01 08:37:35;;;;;;;24.83;4.90;;;14.60;99.90;;;;;;5064710;28;20201;-80
2022/11/01 08:40:04;;;;;;;19.07;4.37;;;14.60;99.90;;;;;;5091334;28;20205;-80
2022/11/01 08:42:30;;;;;;;23.50;4.53;;;14.70;99.90;;;;;;5077092;28;20612;-78
2022/11/01 08:44:57;;;;;;;20.23;5.70;;;14.70;99.90;;;;;;5071321;28;20232;-79
2022/11/01 08:47:24;;;;;;;20.50;5.50;;;14.70;99.90;;;;;;5077883;28;20205;-80
2022/11/01 08:49:51;;;;;;;23.67;5.00;;;14.70;99.90;;;;;;5073323;28;20508;-79
2022/11/01 08:52:18;;;;;;;25.73;5.40;;;14.60;99.90;;;;;;5065198;28;20210;-77
2022/11/01 08:54:45;;;;;;;25.57;5.33;;;14.60;99.90;;;;;;5067737;28;20231;-79
2022/11/01 08:57:14;;;;;;;16.75;4.35;;;14.60;99.90;;;;;;5074778;28;20221;-79
2022/11/01 08:59:41;;;;;;;23.07;4.93;;;14.70;99.90;;;;;;5061689;28;20234;-79
2022/11/01 09:02:09;;;;;;;24.17;4.93;;;14.70;99.90;;;;;;5055560;28;20212;-78
2022/11/01 09:04:36;;;;;;;18.80;3.87;;;14.60;99.90;;;;;;5055599;28;20200;-79
2022/11/01 09:07:04;;;;;;;16.60;4.27;;;14.60;99.90;;;;;;5054460;28;20658;-78
2022/11/01 09:09:31;;;;;;;17.33;3.80;;;14.70;99.90;;;;;;5054996;28;20201;-77
2022/11/01 09:11:57;;;;;;;19.80;4.10;;;14.70;99.90;;;;;;5055642;28;20206;-80
2022/11/01 09:14:26;;;;;;;15.37;4.07;;;14.60;99.90;;;;;;5054413;28;20194;-77
2022/11/01 09:16:53;;;;;;;17.67;3.47;;;14.60;99.90;;;;;;5056126;28;20232;-78
2022/11/01 09:19:20;;;;;;;23.23;4.17;;;14.70;99.90;;;;;;5054891;28;20198;-79
2022/11/01 09:21:47;;;;;;;12.93;3.00;;;14.70;99.90;;;;;;5068537;28;20669;-80
2022/11/01 09:24:16;;;;;;;31.77;5.30;;;14.80;99.90;;;;;;5073540;28;20236;-81
2022/11/01 09:26:43;;;;;;;16.37;3.93;;;14.80;99.90;;;;;;5062119;28;20207;-82
2022/11/01 09:29:10;;;;;;;18.30;3.63;;;14.70;99.90;;;;;;5073952;28;20205;-81
2022/11/01 09:31:39;;;;;;;19.92;4.85;;;14.80;99.90;;;;;;5068898;28;20207;-78
2022/11/01 09:34:06;;;;;;;16.53;4.13;;;14.70;99.90;;;;;;5054459;28;20199;-81
2022/11/01 09:36:33;;;;;;;16.50;3.97;;;14.80;99.90;;;;;;5054741;28;20585;-79
2022/11/01 09:39:00;;;;;;;20.33;3.90;;;14.80;99.90;;;;;;5069902;28;20636;-81
2022/11/01 09:41:32;;;;;;;18.10;3.63;;;14.80;99.90;;;;;;5074751;28;20537;-80
2022/11/01 09:44:01;;;;;;;17.10;3.47;;;14.80;99.90;;;;;;5057955;28;20244;-79
2022/11/01 09:46:32;;;;;;;14.97;3.23;;;14.80;99.90;;;;;;5053684;28;20197;-78
2022/11/01 09:49:02;;;;;;;22.93;4.50;;;14.90;99.90;;;;;;5063876;28;20746;-79
2022/11/01 09:51:29;;;;;;;15.27;3.80;;;14.90;99.90;;;;;;5074222;28;20224;-82
2022/11/01 09:54:03;;;;;;;19.10;4.27;;;14.90;99.90;;;;;;5071553;28;20696;-80
2022/11/01 09:56:35;;;;;;;25.80;5.23;;;15.00;99.90;;;;;;5074104;28;20609;-81
2022/11/01 09:59:10;;;;;;;15.27;3.83;;;15.00;99.90;;;;;;5072504;28;20247;-81
2022/11/01 10:01:52;;;;;;;23.03;5.07;;;15.00;99.90;;;;;;5074564;28;20199;-81
2022/11/01 10:04:34;;;;;;;21.87;4.50;;;15.10;99.90;;;;;;5072652;28;20216;-81
2022/11/01 10:07:07;;;;;;;31.23;5.00;;;15.10;99.90;;;;;;5073816;28;20193;-81
2022/11/01 10:09:43;;;;;;;20.87;5.03;;;15.10;99.90;;;;;;5068418;28;20632;-79
2022/11/01 10:12:24;;;;;;;19.43;4.23;;;15.20;99.90;;;;;;5054267;28;20206;-79
2022/11/01 10:15:09;;;;;;;20.83;4.67;;;15.20;99.90;;;;;;5053102;28;20264;-79
2022/11/01 10:17:49;;;;;;;14.70;4.07;;;15.30;99.90;;;;;;5053632;28;20225;-80
2022/11/01 10:20:19;;;;;;;12.37;3.07;;;15.30;99.90;;;;;;5052843;28;20232;-79
2022/11/01 10:22:49;;;;;;;17.45;3.45;;;15.40;99.90;;;;;;5054180;28;20201;-79
2022/11/01 10:25:21;;;;;;;14.87;4.40;;;15.40;99.90;;;;;;5053511;28;20191;-78
2022/11/01 10:27:56;;;;;;;18.80;3.72;;;15.50;99.90;;;;;;5054090;28;20279;-79
2022/11/01 10:30:23;;;;;;;21.75;3.97;;;15.60;99.90;;;;;;5053622;28;20226;-78
2022/11/01 10:32:53;;;;;;;19.10;3.93;;;15.60;99.90;;;;;;5053473;28;20201;-78
2022/11/01 10:35:27;;;;;;;19.00;4.07;;;15.70;99.90;;;;;;5052270;28;20203;-80
2022/11/01 10:37:58;;;;;;;16.67;3.70;;;15.70;99.90;;;;;;5052936;28;20210;-79
2022/11/01 10:40:30;;;;;;;16.95;3.75;;;15.70;99.90;;;;;;5052686;28;20208;-79
2022/11/01 10:42:58;;;;;;;16.38;3.90;;;15.70;99.90;;;;;;5058378;28;20241;-79
2022/11/01 10:45:25;;;;;;;16.23;3.50;;;15.70;99.90;;;;;;5072715;28;20200;-81
2022/11/01 10:47:57;;;;;;;14.20;3.45;;;15.70;99.90;;;;;;5071998;28;20551;-80
2022/11/01 10:50:28;;;;;;;19.63;4.32;;;15.70;99.90;;;;;;5052362;28;20630;-79
2022/11/01 10:53:00;;;;;;;20.67;4.40;;;15.60;99.90;;;;;;5054032;28;20233;-78
2022/11/01 10:55:30;;;;;;;19.65;4.55;;;15.60;99.90;;;;;;5052969;28;20293;-79
2022/11/01 10:58:01;;;;;;;24.97;4.50;;;15.70;99.90;;;;;;5053347;28;20300;-82
2022/11/01 11:00:32;;;;;;;16.42;3.58;;;15.70;99.90;;;;;;5066760;28;20495;-80
2022/11/01 11:03:03;;;;;;;20.95;4.10;;;15.90;99.90;;;;;;5072092;28;20203;-79
2022/11/01 11:05:33;;;;;;;15.05;3.47;;;16.00;99.90;;;;;;5071487;28;20288;-79
2022/11/01 11:08:03;;;;;;;20.17;3.60;;;16.10;99.90;;;;;;5072846;28;20193;-78
2022/11/01 11:10:30;;;;;;;17.00;4.13;;;16.30;99.90;;;;;;5070887;28;20205;-78
2022/11/01 11:13:00;;;;;;;10.55;3.00;;;16.40;99.90;;;;;;5072165;28;20228;-78
2022/11/01 11:15:39;;;;;;;18.52;3.45;;;16.40;99.90;;;;;;5068398;28;20214;-79
2022/11/01 11:18:17;;;;;;;18.50;4.00;;;16.40;99.90;;;;;;5051991;28;20265;-78
2022/11/01 11:20:51;;;;;;;17.23;4.05;;;16.40;99.90;;;;;;5053002;28;20209;-79
2022/11/01 11:23:19;;;;;;;13.60;3.35;;;16.40;99.90;;;;;;5064362;28;20202;-77
2022/11/01 11:25:46;;;;;;;21.77;3.45;;;16.40;99.90;;;;;;5052210;28;20198;-80
2022/11/01 11:28:24;;;;;;;11.30;3.40;;;16.40;99.90;;;;;;5069856;28;20208;-79
2022/11/01 11:30:52;;;;;;;15.38;3.53;;;16.40;99.90;;;;;;5071523;28;20284;-78
2022/11/01 11:33:19;;;;;;;15.68;3.40;;;16.50;99.90;;;;;;5070912;28;20258;-79
2022/11/01 11:35:57;;;;;;;16.95;3.33;;;16.50;99.90;;;;;;5071772;28;20287;-80
2022/11/01 11:38:42;;;;;;;11.70;3.35;;;16.50;99.90;;;;;;5070163;28;20517;-77
2022/11/01 11:41:10;;;;;;;11.10;2.63;;;16.60;99.90;;;;;;5071940;28;20211;-77
2022/11/01 11:43:40;;;;;;;21.60;3.85;;;16.60;99.90;;;;;;5065069;28;20235;-79
2022/11/01 11:46:13;;;;;;;15.07;2.97;;;16.70;99.90;;;;;;5071563;28;20201;-77
2022/11/01 11:48:47;;;;;;;13.57;3.83;;;16.80;99.90;;;;;;5070638;28;20682;-77
2022/11/01 11:51:16;;;;;;;7.88;2.33;;;16.80;99.90;;;;;;5071895;28;20831;-76
2022/11/01 11:53:43;;;;;;;10.95;3.10;;;16.90;99.90;;;;;;5071398;28;20243;-78
2022/11/01 11:56:12;;;;;;;10.32;2.40;;;17.00;99.90;;;;;;5070505;28;20590;-79
2022/11/01 11:58:41;;;;;;;11.88;2.45;;;17.00;99.90;;;;;;5070742;28;20209;-77
2022/11/01 12:01:11;;;;;;;13.77;2.58;;;16.90;99.90;;;;;;5069748;28;20346;-78
2022/11/01 12:03:46;;;;;;;9.52;2.38;;;16.90;99.90;;;;;;5079230;22;20657;-78
2022/11/01 12:06:20;;;;;;;10.00;2.83;;;16.90;99.90;;;;;;5069533;28;20204;-77
2022/11/01 12:08:49;;;;;;;9.05;2.28;;;16.90;99.90;;;;;;5072036;28;20322;-76
2022/11/01 12:11:16;;;;;;;8.43;2.25;;;17.00;99.90;;;;;;5053018;28;20209;-77
2022/11/01 12:13:45;;;;;;;10.80;2.55;;;17.00;99.90;;;;;;5050757;28;20204;-76
2022/11/01 12:16:19;;;;;;;12.27;2.47;;;17.10;99.90;;;;;;5057022;28;20734;-77
2022/11/01 12:18:48;;;;;;;10.27;2.65;;;17.10;99.90;;;;;;5075787;28;20204;-78
2022/11/01 12:21:20;;;;;;;10.57;2.40;;;17.20;99.90;;;;;;5074007;28;20279;-76
2022/11/01 12:23:50;;;;;;;9.73;2.13;;;17.20;99.90;;;;;;5055044;28;20190;-77
2022/11/01 12:26:21;;;;;;;11.00;2.63;;;17.30;99.90;;;;;;5055550;28;20202;-76
2022/11/01 12:28:55;;;;;;;12.50;2.65;;;17.20;96.10;;;;;;5070950;28;20223;-76
2022/11/01 12:31:22;;;;;;;7.10;1.80;;;17.20;97.80;;;;;;5075100;28;20740;-78
2022/11/01 12:33:54;;;;;;;8.45;2.20;;;17.20;99.90;;;;;;5072739;28;20209;-78
2022/11/01 12:36:29;;;;;;;6.82;1.60;;;17.20;99.90;;;;;;5074987;28;20190;-78
2022/11/01 12:39:00;;;;;;;8.85;2.28;;;17.30;99.90;;;;;;5061837;28;20194;-77
2022/11/01 12:41:33;;;;;;;11.10;2.10;;;17.30;94.40;;;;;;5054006;28;20202;-78
2022/11/01 12:44:10;;;;;;;7.88;2.05;;;17.30;92.20;;;;;;5055629;28;20205;-81
2022/11/01 12:46:44;;;;;;;7.65;2.38;;;17.30;96.50;;;;;;5055348;28;20193;-77
2022/11/01 12:49:18;;;;;;;9.18;2.08;;;17.20;87.40;;;;;;5056356;28;20243;-78
2022/11/01 12:51:49;;;;;;;8.98;1.80;;;17.10;97.40;;;;;;5075008;28;20194;-78
2022/11/01 12:54:20;;;;;;;10.00;2.40;;;17.10;99.40;;;;;;5071215;28;20221;-78
2022/11/01 12:56:47;;;;;;;10.82;2.47;;;17.10;94.80;;;;;;5054065;28;20233;-78